sensor_id;sensor_type;location;lat;lon;timestamp;P1;durP1;ratioP1;P2;durP2;ratioP2
72406;SDS011;60396;47.550;18.828;2023-08-21T00:00:07;12.40;;;7.53;;
72406;SDS011;60396;47.550;18.828;2023-08-21T00:02:37;10.07;;;6.62;;
72406;SDS011;60396;47.550;18.828;2023-08-21T00:05:06;10.75;;;7.00;;
72406;SDS011;60396;47.550;18.828;2023-08-21T00:07:34;11.12;;;6.82;;
72406;SDS011;60396;47.550;18.828;2023-08-21T00:10:01;11.00;;;6.93;;
72406;SDS011;60396;47.550;18.828;2023-08-21T00:12:30;12.73;;;7.03;;
72406;SDS011;60396;47.550;18.828;2023-08-21T00:14:57;10.38;;;7.05;;
72406;SDS011;60396;47.550;18.828;2023-08-21T00:17:25;11.02;;;6.75;;
72406;SDS011;60396;47.550;18.828;2023-08-21T00:19:53;12.37;;;6.80;;
72406;SDS011;60396;47.550;18.828;2023-08-21T00:22:20;10.33;;;6.63;;
72406;SDS011;60396;47.550;18.828;2023-08-21T00:24:48;11.00;;;7.80;;
72406;SDS011;60396;47.550;18.828;2023-08-21T00:27:16;14.32;;;7.30;;
72406;SDS011;60396;47.550;18.828;2023-08-21T00:29:43;11.75;;;6.65;;
72406;SDS011;60396;47.550;18.828;2023-08-21T00:32:11;11.90;;;7.30;;
72406;SDS011;60396;47.550;18.828;2023-08-21T00:34:40;11.27;;;7.07;;
72406;SDS011;60396;47.550;18.828;2023-08-21T00:37:07;10.68;;;6.95;;
72406;SDS011;60396;47.550;18.828;2023-08-21T00:39:35;9.32;;;6.60;;
72406;SDS011;60396;47.550;18.828;2023-08-21T00:42:03;11.52;;;6.40;;
72406;SDS011;60396;47.550;18.828;2023-08-21T00:44:30;11.70;;;7.50;;
72406;SDS011;60396;47.550;18.828;2023-08-21T00:46:58;13.33;;;7.00;;
72406;SDS011;60396;47.550;18.828;2023-08-21T00:49:26;10.80;;;6.68;;
72406;SDS011;60396;47.550;18.828;2023-08-21T00:51:54;11.60;;;7.55;;
72406;SDS011;60396;47.550;18.828;2023-08-21T00:54:22;15.05;;;7.40;;
72406;SDS011;60396;47.550;18.828;2023-08-21T00:56:50;10.82;;;7.35;;
72406;SDS011;60396;47.550;18.828;2023-08-21T00:59:19;13.13;;;7.53;;
72406;SDS011;60396;47.550;18.828;2023-08-21T01:01:49;10.32;;;6.68;;
72406;SDS011;60396;47.550;18.828;2023-08-21T01:04:18;10.75;;;6.90;;
72406;SDS011;60396;47.550;18.828;2023-08-21T01:06:46;12.30;;;7.47;;
72406;SDS011;60396;47.550;18.828;2023-08-21T01:14:44;12.20;;;7.57;;
72406;SDS011;60396;47.550;18.828;2023-08-21T01:17:16;12.02;;;7.18;;
72406;SDS011;60396;47.550;18.828;2023-08-21T01:19:46;11.12;;;7.50;;
72406;SDS011;60396;47.550;18.828;2023-08-21T01:22:15;10.38;;;6.72;;
72406;SDS011;60396;47.550;18.828;2023-08-21T01:24:43;12.13;;;7.40;;
72406;SDS011;60396;47.550;18.828;2023-08-21T01:27:12;11.95;;;7.62;;
72406;SDS011;60396;47.550;18.828;2023-08-21T01:29:42;12.00;;;6.78;;
72406;SDS011;60396;47.550;18.828;2023-08-21T01:32:13;10.25;;;6.45;;
72406;SDS011;60396;47.550;18.828;2023-08-21T01:34:51;10.73;;;6.57;;
72406;SDS011;60396;47.550;18.828;2023-08-21T01:37:23;11.77;;;6.67;;
72406;SDS011;60396;47.550;18.828;2023-08-21T01:39:51;12.90;;;7.18;;
72406;SDS011;60396;47.550;18.828;2023-08-21T01:42:19;11.15;;;7.05;;
72406;SDS011;60396;47.550;18.828;2023-08-21T01:44:47;11.90;;;7.22;;
72406;SDS011;60396;47.550;18.828;2023-08-21T01:47:15;11.73;;;7.00;;
72406;SDS011;60396;47.550;18.828;2023-08-21T01:49:43;12.67;;;6.73;;
72406;SDS011;60396;47.550;18.828;2023-08-21T01:52:12;10.15;;;6.93;;
72406;SDS011;60396;47.550;18.828;2023-08-21T01:54:40;11.93;;;7.15;;
72406;SDS011;60396;47.550;18.828;2023-08-21T01:57:09;10.98;;;7.05;;
72406;SDS011;60396;47.550;18.828;2023-08-21T01:59:37;13.27;;;6.95;;
72406;SDS011;60396;47.550;18.828;2023-08-21T02:02:04;13.17;;;7.37;;
72406;SDS011;60396;47.550;18.828;2023-08-21T02:04:32;11.73;;;7.50;;
72406;SDS011;60396;47.550;18.828;2023-08-21T02:07:00;11.35;;;7.20;;
72406;SDS011;60396;47.550;18.828;2023-08-21T02:09:28;12.27;;;7.85;;
72406;SDS011;60396;47.550;18.828;2023-08-21T02:11:56;11.88;;;7.22;;
72406;SDS011;60396;47.550;18.828;2023-08-21T02:14:23;14.27;;;7.20;;
72406;SDS011;60396;47.550;18.828;2023-08-21T02:16:51;12.20;;;7.05;;
72406;SDS011;60396;47.550;18.828;2023-08-21T02:19:19;11.77;;;6.95;;
72406;SDS011;60396;47.550;18.828;2023-08-21T02:21:47;11.90;;;7.68;;
72406;SDS011;60396;47.550;18.828;2023-08-21T02:24:14;11.00;;;6.72;;
72406;SDS011;60396;47.550;18.828;2023-08-21T02:26:43;11.10;;;7.33;;
72406;SDS011;60396;47.550;18.828;2023-08-21T02:29:13;10.73;;;7.00;;
72406;SDS011;60396;47.550;18.828;2023-08-21T02:31:41;11.43;;;6.68;;
72406;SDS011;60396;47.550;18.828;2023-08-21T02:34:10;11.20;;;6.87;;
72406;SDS011;60396;47.550;18.828;2023-08-21T02:36:38;14.52;;;7.40;;
72406;SDS011;60396;47.550;18.828;2023-08-21T02:39:05;28.93;;;8.30;;
72406;SDS011;60396;47.550;18.828;2023-08-21T02:41:33;13.23;;;7.80;;
72406;SDS011;60396;47.550;18.828;2023-08-21T02:44:01;11.50;;;7.47;;
72406;SDS011;60396;47.550;18.828;2023-08-21T02:46:29;12.52;;;7.35;;
72406;SDS011;60396;47.550;18.828;2023-08-21T02:48:57;14.40;;;7.70;;
72406;SDS011;60396;47.550;18.828;2023-08-21T02:51:25;13.50;;;7.63;;
72406;SDS011;60396;47.550;18.828;2023-08-21T02:53:53;12.75;;;7.20;;
72406;SDS011;60396;47.550;18.828;2023-08-21T02:56:21;12.63;;;7.80;;
72406;SDS011;60396;47.550;18.828;2023-08-21T02:58:49;14.65;;;8.05;;
72406;SDS011;60396;47.550;18.828;2023-08-21T03:01:16;12.82;;;8.18;;
72406;SDS011;60396;47.550;18.828;2023-08-21T03:03:45;14.73;;;8.60;;
72406;SDS011;60396;47.550;18.828;2023-08-21T03:06:12;13.82;;;8.02;;
72406;SDS011;60396;47.550;18.828;2023-08-21T03:08:40;13.10;;;7.87;;
72406;SDS011;60396;47.550;18.828;2023-08-21T03:11:11;12.45;;;7.78;;
72406;SDS011;60396;47.550;18.828;2023-08-21T03:13:38;11.82;;;7.32;;
72406;SDS011;60396;47.550;18.828;2023-08-21T03:16:06;13.63;;;7.93;;
72406;SDS011;60396;47.550;18.828;2023-08-21T03:18:53;11.93;;;7.75;;
72406;SDS011;60396;47.550;18.828;2023-08-21T03:21:27;10.40;;;7.37;;
72406;SDS011;60396;47.550;18.828;2023-08-21T03:23:56;13.62;;;7.18;;
72406;SDS011;60396;47.550;18.828;2023-08-21T03:26:30;11.63;;;7.72;;
72406;SDS011;60396;47.550;18.828;2023-08-21T03:28:58;13.23;;;7.93;;
72406;SDS011;60396;47.550;18.828;2023-08-21T03:31:26;12.02;;;7.82;;
72406;SDS011;60396;47.550;18.828;2023-08-21T03:33:54;13.13;;;7.97;;
72406;SDS011;60396;47.550;18.828;2023-08-21T03:36:22;11.27;;;8.38;;
72406;SDS011;60396;47.550;18.828;2023-08-21T03:38:58;11.40;;;7.95;;
72406;SDS011;60396;47.550;18.828;2023-08-21T03:41:27;11.47;;;7.80;;
72406;SDS011;60396;47.550;18.828;2023-08-21T03:43:55;12.57;;;8.00;;
72406;SDS011;60396;47.550;18.828;2023-08-21T03:46:22;11.43;;;7.72;;
72406;SDS011;60396;47.550;18.828;2023-08-21T03:48:51;11.07;;;7.75;;
72406;SDS011;60396;47.550;18.828;2023-08-21T03:51:19;12.60;;;8.40;;
72406;SDS011;60396;47.550;18.828;2023-08-21T03:53:47;11.17;;;7.57;;
72406;SDS011;60396;47.550;18.828;2023-08-21T03:56:16;12.13;;;7.95;;
72406;SDS011;60396;47.550;18.828;2023-08-21T03:58:45;11.30;;;7.65;;
72406;SDS011;60396;47.550;18.828;2023-08-21T04:01:13;12.45;;;8.05;;
72406;SDS011;60396;47.550;18.828;2023-08-21T04:03:42;11.98;;;7.78;;
72406;SDS011;60396;47.550;18.828;2023-08-21T04:06:10;15.07;;;8.87;;
72406;SDS011;60396;47.550;18.828;2023-08-21T04:08:37;12.05;;;8.20;;
72406;SDS011;60396;47.550;18.828;2023-08-21T04:11:05;14.60;;;8.00;;
72406;SDS011;60396;47.550;18.828;2023-08-21T04:13:33;11.90;;;7.90;;
72406;SDS011;60396;47.550;18.828;2023-08-21T04:16:01;11.70;;;7.97;;
72406;SDS011;60396;47.550;18.828;2023-08-21T04:18:29;11.03;;;7.63;;
72406;SDS011;60396;47.550;18.828;2023-08-21T04:21:08;12.68;;;7.90;;
72406;SDS011;60396;47.550;18.828;2023-08-21T04:23:37;11.75;;;7.85;;
72406;SDS011;60396;47.550;18.828;2023-08-21T04:26:05;13.60;;;8.48;;
72406;SDS011;60396;47.550;18.828;2023-08-21T04:28:33;13.57;;;8.40;;
72406;SDS011;60396;47.550;18.828;2023-08-21T04:31:05;12.77;;;7.97;;
72406;SDS011;60396;47.550;18.828;2023-08-21T04:33:33;12.70;;;8.35;;
72406;SDS011;60396;47.550;18.828;2023-08-21T04:36:02;13.52;;;8.15;;
72406;SDS011;60396;47.550;18.828;2023-08-21T04:38:30;12.50;;;8.27;;
72406;SDS011;60396;47.550;18.828;2023-08-21T04:41:07;11.88;;;7.90;;
72406;SDS011;60396;47.550;18.828;2023-08-21T04:43:36;13.47;;;7.97;;
72406;SDS011;60396;47.550;18.828;2023-08-21T04:46:04;11.63;;;8.00;;
72406;SDS011;60396;47.550;18.828;2023-08-21T04:48:34;12.20;;;8.05;;
72406;SDS011;60396;47.550;18.828;2023-08-21T04:51:02;11.52;;;8.55;;
72406;SDS011;60396;47.550;18.828;2023-08-21T04:53:29;12.90;;;8.10;;
72406;SDS011;60396;47.550;18.828;2023-08-21T04:56:01;13.07;;;7.77;;
72406;SDS011;60396;47.550;18.828;2023-08-21T04:58:29;14.85;;;8.40;;
72406;SDS011;60396;47.550;18.828;2023-08-21T05:00:56;14.70;;;8.25;;
72406;SDS011;60396;47.550;18.828;2023-08-21T05:03:24;12.70;;;8.82;;
72406;SDS011;60396;47.550;18.828;2023-08-21T05:05:53;11.77;;;8.32;;
72406;SDS011;60396;47.550;18.828;2023-08-21T05:08:25;12.27;;;8.33;;
72406;SDS011;60396;47.550;18.828;2023-08-21T05:10:54;12.55;;;8.45;;
72406;SDS011;60396;47.550;18.828;2023-08-21T05:13:25;13.20;;;9.25;;
72406;SDS011;60396;47.550;18.828;2023-08-21T05:15:54;11.55;;;8.32;;
72406;SDS011;60396;47.550;18.828;2023-08-21T05:18:24;15.63;;;8.68;;
72406;SDS011;60396;47.550;18.828;2023-08-21T05:20:53;13.20;;;8.70;;
72406;SDS011;60396;47.550;18.828;2023-08-21T05:23:22;14.38;;;9.40;;
72406;SDS011;60396;47.550;18.828;2023-08-21T05:25:50;12.93;;;8.77;;
72406;SDS011;60396;47.550;18.828;2023-08-21T05:28:17;14.50;;;9.30;;
72406;SDS011;60396;47.550;18.828;2023-08-21T05:30:48;12.45;;;8.48;;
72406;SDS011;60396;47.550;18.828;2023-08-21T05:33:17;13.50;;;8.33;;
72406;SDS011;60396;47.550;18.828;2023-08-21T05:35:45;12.23;;;8.48;;
72406;SDS011;60396;47.550;18.828;2023-08-21T05:38:13;16.90;;;9.90;;
72406;SDS011;60396;47.550;18.828;2023-08-21T05:40:40;15.25;;;9.70;;
72406;SDS011;60396;47.550;18.828;2023-08-21T05:43:09;12.18;;;8.35;;
72406;SDS011;60396;47.550;18.828;2023-08-21T05:45:37;11.80;;;8.90;;
72406;SDS011;60396;47.550;18.828;2023-08-21T05:48:05;12.95;;;9.07;;
72406;SDS011;60396;47.550;18.828;2023-08-21T05:50:33;14.93;;;9.75;;
72406;SDS011;60396;47.550;18.828;2023-08-21T05:53:04;13.43;;;8.90;;
72406;SDS011;60396;47.550;18.828;2023-08-21T05:55:32;14.55;;;9.15;;
72406;SDS011;60396;47.550;18.828;2023-08-21T05:58:00;15.73;;;9.60;;
72406;SDS011;60396;47.550;18.828;2023-08-21T06:00:28;15.40;;;9.30;;
72406;SDS011;60396;47.550;18.828;2023-08-21T06:03:00;14.65;;;9.63;;
72406;SDS011;60396;47.550;18.828;2023-08-21T06:05:29;14.52;;;9.25;;
72406;SDS011;60396;47.550;18.828;2023-08-21T06:07:57;15.88;;;8.45;;
72406;SDS011;60396;47.550;18.828;2023-08-21T06:10:25;16.67;;;9.30;;
72406;SDS011;60396;47.550;18.828;2023-08-21T06:12:53;13.82;;;9.43;;
72406;SDS011;60396;47.550;18.828;2023-08-21T06:15:20;17.67;;;9.15;;
72406;SDS011;60396;47.550;18.828;2023-08-21T06:17:48;15.18;;;9.43;;
72406;SDS011;60396;47.550;18.828;2023-08-21T06:20:16;16.35;;;9.35;;
72406;SDS011;60396;47.550;18.828;2023-08-21T06:22:46;15.13;;;9.63;;
72406;SDS011;60396;47.550;18.828;2023-08-21T06:25:13;15.82;;;9.55;;
72406;SDS011;60396;47.550;18.828;2023-08-21T06:27:41;12.57;;;8.60;;
72406;SDS011;60396;47.550;18.828;2023-08-21T06:30:25;16.33;;;9.65;;
72406;SDS011;60396;47.550;18.828;2023-08-21T06:32:55;15.98;;;9.60;;
72406;SDS011;60396;47.550;18.828;2023-08-21T06:35:24;13.97;;;10.10;;
72406;SDS011;60396;47.550;18.828;2023-08-21T06:37:52;13.38;;;9.93;;
72406;SDS011;60396;47.550;18.828;2023-08-21T06:40:22;13.00;;;9.63;;
72406;SDS011;60396;47.550;18.828;2023-08-21T06:42:50;14.00;;;9.05;;
72406;SDS011;60396;47.550;18.828;2023-08-21T06:45:19;13.05;;;9.25;;
72406;SDS011;60396;47.550;18.828;2023-08-21T06:47:46;14.90;;;10.17;;
72406;SDS011;60396;47.550;18.828;2023-08-21T06:50:14;13.77;;;9.90;;
72406;SDS011;60396;47.550;18.828;2023-08-21T06:52:42;17.40;;;9.93;;
72406;SDS011;60396;47.550;18.828;2023-08-21T06:55:10;17.37;;;9.70;;
72406;SDS011;60396;47.550;18.828;2023-08-21T06:57:38;14.13;;;9.93;;
72406;SDS011;60396;47.550;18.828;2023-08-21T07:00:06;15.00;;;10.40;;
72406;SDS011;60396;47.550;18.828;2023-08-21T07:02:34;17.70;;;9.68;;
72406;SDS011;60396;47.550;18.828;2023-08-21T07:05:02;16.15;;;10.30;;
72406;SDS011;60396;47.550;18.828;2023-08-21T07:07:30;14.98;;;9.45;;
72406;SDS011;60396;47.550;18.828;2023-08-21T07:09:58;14.57;;;10.00;;
72406;SDS011;60396;47.550;18.828;2023-08-21T07:12:25;17.37;;;9.47;;
72406;SDS011;60396;47.550;18.828;2023-08-21T07:14:53;14.38;;;9.07;;
72406;SDS011;60396;47.550;18.828;2023-08-21T07:17:21;14.52;;;9.77;;
72406;SDS011;60396;47.550;18.828;2023-08-21T07:19:48;12.93;;;8.55;;
72406;SDS011;60396;47.550;18.828;2023-08-21T07:22:19;14.50;;;8.85;;
72406;SDS011;60396;47.550;18.828;2023-08-21T07:24:47;14.57;;;8.73;;
72406;SDS011;60396;47.550;18.828;2023-08-21T07:27:15;13.13;;;8.77;;
72406;SDS011;60396;47.550;18.828;2023-08-21T07:29:43;13.80;;;8.93;;
72406;SDS011;60396;47.550;18.828;2023-08-21T07:32:12;13.88;;;9.35;;
72406;SDS011;60396;47.550;18.828;2023-08-21T07:34:39;11.63;;;8.52;;
72406;SDS011;60396;47.550;18.828;2023-08-21T07:37:08;13.83;;;9.37;;
72406;SDS011;60396;47.550;18.828;2023-08-21T07:39:36;13.50;;;8.63;;
72406;SDS011;60396;47.550;18.828;2023-08-21T07:42:04;13.18;;;8.68;;
72406;SDS011;60396;47.550;18.828;2023-08-21T07:44:32;14.55;;;8.40;;
72406;SDS011;60396;47.550;18.828;2023-08-21T07:46:59;13.32;;;8.63;;
72406;SDS011;60396;47.550;18.828;2023-08-21T07:49:29;13.33;;;8.70;;
72406;SDS011;60396;47.550;18.828;2023-08-21T07:51:57;13.95;;;8.27;;
72406;SDS011;60396;47.550;18.828;2023-08-21T07:54:24;12.98;;;8.60;;
72406;SDS011;60396;47.550;18.828;2023-08-21T07:56:52;16.27;;;8.98;;
72406;SDS011;60396;47.550;18.828;2023-08-21T07:59:20;15.23;;;8.85;;
72406;SDS011;60396;47.550;18.828;2023-08-21T08:01:47;12.47;;;8.23;;
72406;SDS011;60396;47.550;18.828;2023-08-21T08:04:15;12.45;;;8.27;;
72406;SDS011;60396;47.550;18.828;2023-08-21T08:06:43;12.27;;;8.27;;
72406;SDS011;60396;47.550;18.828;2023-08-21T08:09:11;15.52;;;8.68;;
72406;SDS011;60396;47.550;18.828;2023-08-21T08:11:39;11.88;;;7.55;;
72406;SDS011;60396;47.550;18.828;2023-08-21T08:14:09;13.07;;;8.10;;
72406;SDS011;60396;47.550;18.828;2023-08-21T08:16:37;11.35;;;7.53;;
72406;SDS011;60396;47.550;18.828;2023-08-21T08:19:05;14.80;;;7.78;;
72406;SDS011;60396;47.550;18.828;2023-08-21T08:21:32;12.57;;;8.13;;
72406;SDS011;60396;47.550;18.828;2023-08-21T08:24:00;14.20;;;8.40;;
72406;SDS011;60396;47.550;18.828;2023-08-21T08:26:28;14.10;;;7.83;;
72406;SDS011;60396;47.550;18.828;2023-08-21T08:28:55;12.35;;;8.70;;
72406;SDS011;60396;47.550;18.828;2023-08-21T08:31:23;11.63;;;7.15;;
72406;SDS011;60396;47.550;18.828;2023-08-21T08:33:53;13.30;;;8.20;;
72406;SDS011;60396;47.550;18.828;2023-08-21T08:36:21;15.77;;;8.50;;
72406;SDS011;60396;47.550;18.828;2023-08-21T08:38:49;14.57;;;8.13;;
72406;SDS011;60396;47.550;18.828;2023-08-21T08:42:02;12.55;;;7.93;;
72406;SDS011;60396;47.550;18.828;2023-08-21T08:44:28;10.07;;;7.50;;
72406;SDS011;60396;47.550;18.828;2023-08-21T08:46:57;11.98;;;7.03;;
72406;SDS011;60396;47.550;18.828;2023-08-21T08:49:25;11.85;;;7.70;;
72406;SDS011;60396;47.550;18.828;2023-08-21T08:51:53;10.93;;;7.47;;
72406;SDS011;60396;47.550;18.828;2023-08-21T08:54:22;13.27;;;7.62;;
72406;SDS011;60396;47.550;18.828;2023-08-21T08:56:49;12.05;;;8.20;;
72406;SDS011;60396;47.550;18.828;2023-08-21T08:59:17;10.95;;;7.87;;
72406;SDS011;60396;47.550;18.828;2023-08-21T09:01:45;12.25;;;7.85;;
72406;SDS011;60396;47.550;18.828;2023-08-21T09:04:12;10.97;;;7.27;;
72406;SDS011;60396;47.550;18.828;2023-08-21T09:06:40;12.00;;;7.90;;
72406;SDS011;60396;47.550;18.828;2023-08-21T09:09:08;11.57;;;7.72;;
72406;SDS011;60396;47.550;18.828;2023-08-21T09:11:46;14.40;;;7.43;;
72406;SDS011;60396;47.550;18.828;2023-08-21T09:14:15;12.40;;;7.22;;
72406;SDS011;60396;47.550;18.828;2023-08-21T09:17:01;11.00;;;7.90;;
72406;SDS011;60396;47.550;18.828;2023-08-21T09:19:32;11.30;;;7.90;;
72406;SDS011;60396;47.550;18.828;2023-08-21T09:22:22;10.90;;;8.40;;
72406;SDS011;60396;47.550;18.828;2023-08-21T09:25:06;13.32;;;8.07;;
72406;SDS011;60396;47.550;18.828;2023-08-21T09:27:37;10.80;;;7.57;;
72406;SDS011;60396;47.550;18.828;2023-08-21T09:30:10;11.73;;;7.83;;
72406;SDS011;60396;47.550;18.828;2023-08-21T09:32:55;11.80;;;8.27;;
72406;SDS011;60396;47.550;18.828;2023-08-21T09:35:24;12.50;;;8.07;;
72406;SDS011;60396;47.550;18.828;2023-08-21T09:37:53;13.95;;;8.18;;
72406;SDS011;60396;47.550;18.828;2023-08-21T09:40:21;12.02;;;8.00;;
72406;SDS011;60396;47.550;18.828;2023-08-21T09:42:53;12.73;;;7.17;;
72406;SDS011;60396;47.550;18.828;2023-08-21T09:45:24;11.77;;;8.07;;
72406;SDS011;60396;47.550;18.828;2023-08-21T09:47:53;12.60;;;7.75;;
72406;SDS011;60396;47.550;18.828;2023-08-21T09:50:21;10.93;;;6.93;;
72406;SDS011;60396;47.550;18.828;2023-08-21T09:52:49;11.88;;;7.68;;
72406;SDS011;60396;47.550;18.828;2023-08-21T09:55:18;13.60;;;7.30;;
72406;SDS011;60396;47.550;18.828;2023-08-21T09:57:46;13.48;;;7.35;;
72406;SDS011;60396;47.550;18.828;2023-08-21T10:00:17;11.95;;;7.62;;
72406;SDS011;60396;47.550;18.828;2023-08-21T10:02:51;13.60;;;8.23;;
72406;SDS011;60396;47.550;18.828;2023-08-21T10:05:19;13.55;;;8.07;;
72406;SDS011;60396;47.550;18.828;2023-08-21T10:07:47;11.07;;;7.50;;
72406;SDS011;60396;47.550;18.828;2023-08-21T10:10:17;10.88;;;7.68;;
72406;SDS011;60396;47.550;18.828;2023-08-21T10:12:45;15.88;;;7.70;;
72406;SDS011;60396;47.550;18.828;2023-08-21T10:15:12;11.38;;;7.72;;
72406;SDS011;60396;47.550;18.828;2023-08-21T10:17:41;12.98;;;8.18;;
72406;SDS011;60396;47.550;18.828;2023-08-21T10:20:10;11.73;;;7.93;;
72406;SDS011;60396;47.550;18.828;2023-08-21T10:22:48;13.35;;;7.53;;
72406;SDS011;60396;47.550;18.828;2023-08-21T10:25:23;13.07;;;7.53;;
72406;SDS011;60396;47.550;18.828;2023-08-21T10:27:58;12.73;;;7.85;;
72406;SDS011;60396;47.550;18.828;2023-08-21T10:30:27;11.30;;;7.78;;
72406;SDS011;60396;47.550;18.828;2023-08-21T10:32:59;11.97;;;7.90;;
72406;SDS011;60396;47.550;18.828;2023-08-21T10:35:31;13.80;;;8.38;;
72406;SDS011;60396;47.550;18.828;2023-08-21T10:38:05;11.50;;;7.97;;
72406;SDS011;60396;47.550;18.828;2023-08-21T10:40:34;12.48;;;7.53;;
72406;SDS011;60396;47.550;18.828;2023-08-21T10:43:03;14.35;;;8.23;;
72406;SDS011;60396;47.550;18.828;2023-08-21T10:45:31;14.10;;;7.83;;
72406;SDS011;60396;47.550;18.828;2023-08-21T10:47:59;11.98;;;8.25;;
72406;SDS011;60396;47.550;18.828;2023-08-21T10:50:27;11.05;;;7.37;;
72406;SDS011;60396;47.550;18.828;2023-08-21T10:52:55;15.32;;;8.60;;
72406;SDS011;60396;47.550;18.828;2023-08-21T10:55:22;13.32;;;8.25;;
72406;SDS011;60396;47.550;18.828;2023-08-21T10:57:50;13.87;;;8.93;;
72406;SDS011;60396;47.550;18.828;2023-08-21T11:00:18;11.05;;;8.00;;
72406;SDS011;60396;47.550;18.828;2023-08-21T11:02:48;10.77;;;7.80;;
72406;SDS011;60396;47.550;18.828;2023-08-21T11:05:17;14.63;;;7.93;;
72406;SDS011;60396;47.550;18.828;2023-08-21T11:07:46;12.90;;;8.35;;
72406;SDS011;60396;47.550;18.828;2023-08-21T11:10:16;10.93;;;7.97;;
72406;SDS011;60396;47.550;18.828;2023-08-21T11:12:51;13.30;;;7.82;;
72406;SDS011;60396;47.550;18.828;2023-08-21T11:15:21;12.07;;;7.78;;
72406;SDS011;60396;47.550;18.828;2023-08-21T11:17:53;13.05;;;7.45;;
72406;SDS011;60396;47.550;18.828;2023-08-21T11:20:22;12.10;;;7.47;;
72406;SDS011;60396;47.550;18.828;2023-08-21T11:22:56;11.63;;;8.17;;
72406;SDS011;60396;47.550;18.828;2023-08-21T11:25:29;15.30;;;7.90;;
72406;SDS011;60396;47.550;18.828;2023-08-21T11:27:58;14.40;;;7.72;;
72406;SDS011;60396;47.550;18.828;2023-08-21T11:30:25;12.85;;;7.37;;
72406;SDS011;60396;47.550;18.828;2023-08-21T11:33:10;13.10;;;8.13;;
72406;SDS011;60396;47.550;18.828;2023-08-21T11:35:39;14.70;;;8.70;;
72406;SDS011;60396;47.550;18.828;2023-08-21T11:38:18;12.88;;;8.15;;
72406;SDS011;60396;47.550;18.828;2023-08-21T11:43:40;12.10;;;8.07;;
72406;SDS011;60396;47.550;18.828;2023-08-21T11:46:10;11.23;;;8.00;;
72406;SDS011;60396;47.550;18.828;2023-08-21T11:48:39;11.00;;;7.83;;
72406;SDS011;60396;47.550;18.828;2023-08-21T11:51:07;12.43;;;7.80;;
72406;SDS011;60396;47.550;18.828;2023-08-21T11:53:40;12.30;;;7.30;;
72406;SDS011;60396;47.550;18.828;2023-08-21T11:56:11;10.77;;;7.68;;
72406;SDS011;60396;47.550;18.828;2023-08-21T11:58:40;13.82;;;7.80;;
72406;SDS011;60396;47.550;18.828;2023-08-21T12:01:09;12.33;;;7.37;;
72406;SDS011;60396;47.550;18.828;2023-08-21T12:03:38;12.10;;;7.45;;
72406;SDS011;60396;47.550;18.828;2023-08-21T12:06:07;10.27;;;7.32;;
72406;SDS011;60396;47.550;18.828;2023-08-21T12:08:36;11.50;;;6.97;;
72406;SDS011;60396;47.550;18.828;2023-08-21T12:11:05;9.98;;;7.03;;
72406;SDS011;60396;47.550;18.828;2023-08-21T12:13:33;11.57;;;6.90;;
72406;SDS011;60396;47.550;18.828;2023-08-21T12:16:03;13.95;;;8.23;;
72406;SDS011;60396;47.550;18.828;2023-08-21T12:18:31;10.48;;;7.00;;
72406;SDS011;60396;47.550;18.828;2023-08-21T12:20:59;10.55;;;8.02;;
72406;SDS011;60396;47.550;18.828;2023-08-21T12:23:26;11.95;;;8.05;;
72406;SDS011;60396;47.550;18.828;2023-08-21T12:25:55;12.40;;;7.30;;
72406;SDS011;60396;47.550;18.828;2023-08-21T12:28:23;11.05;;;7.70;;
72406;SDS011;60396;47.550;18.828;2023-08-21T12:30:50;11.18;;;7.45;;
72406;SDS011;60396;47.550;18.828;2023-08-21T12:33:18;10.38;;;8.05;;
72406;SDS011;60396;47.550;18.828;2023-08-21T12:35:50;10.60;;;7.22;;
72406;SDS011;60396;47.550;18.828;2023-08-21T12:38:19;11.13;;;7.40;;
72406;SDS011;60396;47.550;18.828;2023-08-21T12:40:48;11.00;;;7.62;;
72406;SDS011;60396;47.550;18.828;2023-08-21T12:43:15;12.88;;;7.57;;
72406;SDS011;60396;47.550;18.828;2023-08-21T12:45:43;12.45;;;7.50;;
72406;SDS011;60396;47.550;18.828;2023-08-21T12:48:11;12.60;;;7.32;;
72406;SDS011;60396;47.550;18.828;2023-08-21T12:50:39;11.53;;;7.17;;
72406;SDS011;60396;47.550;18.828;2023-08-21T12:53:07;11.38;;;7.20;;
72406;SDS011;60396;47.550;18.828;2023-08-21T12:55:35;10.38;;;7.30;;
72406;SDS011;60396;47.550;18.828;2023-08-21T12:58:03;11.80;;;7.72;;
72406;SDS011;60396;47.550;18.828;2023-08-21T13:00:31;9.52;;;7.20;;
72406;SDS011;60396;47.550;18.828;2023-08-21T13:02:59;17.53;;;7.43;;
72406;SDS011;60396;47.550;18.828;2023-08-21T13:05:27;14.02;;;8.10;;
72406;SDS011;60396;47.550;18.828;2023-08-21T13:07:55;11.02;;;7.40;;
72406;SDS011;60396;47.550;18.828;2023-08-21T13:10:23;11.55;;;7.05;;
72406;SDS011;60396;47.550;18.828;2023-08-21T13:12:51;9.93;;;7.00;;
72406;SDS011;60396;47.550;18.828;2023-08-21T13:15:19;11.37;;;8.17;;
72406;SDS011;60396;47.550;18.828;2023-08-21T13:17:46;13.43;;;8.18;;
72406;SDS011;60396;47.550;18.828;2023-08-21T13:20:15;11.18;;;7.95;;
72406;SDS011;60396;47.550;18.828;2023-08-21T13:25:18;11.57;;;7.60;;
72406;SDS011;60396;47.550;18.828;2023-08-21T13:27:47;11.03;;;7.50;;
72406;SDS011;60396;47.550;18.828;2023-08-21T13:30:15;11.05;;;8.35;;
72406;SDS011;60396;47.550;18.828;2023-08-21T13:32:43;10.90;;;7.25;;
72406;SDS011;60396;47.550;18.828;2023-08-21T13:35:14;10.35;;;7.05;;
72406;SDS011;60396;47.550;18.828;2023-08-21T13:37:42;10.85;;;7.07;;
72406;SDS011;60396;47.550;18.828;2023-08-21T13:40:09;12.83;;;6.43;;
72406;SDS011;60396;47.550;18.828;2023-08-21T13:42:40;11.57;;;7.32;;
72406;SDS011;60396;47.550;18.828;2023-08-21T13:45:13;10.57;;;6.90;;
72406;SDS011;60396;47.550;18.828;2023-08-21T13:47:42;11.02;;;7.12;;
72406;SDS011;60396;47.550;18.828;2023-08-21T13:50:12;10.32;;;7.05;;
72406;SDS011;60396;47.550;18.828;2023-08-21T13:52:40;11.63;;;7.40;;
72406;SDS011;60396;47.550;18.828;2023-08-21T13:55:09;12.20;;;6.85;;
72406;SDS011;60396;47.550;18.828;2023-08-21T13:57:37;9.40;;;6.32;;
72406;SDS011;60396;47.550;18.828;2023-08-21T14:00:06;14.68;;;7.28;;
72406;SDS011;60396;47.550;18.828;2023-08-21T14:02:35;14.20;;;6.95;;
72406;SDS011;60396;47.550;18.828;2023-08-21T14:05:03;10.80;;;6.77;;
72406;SDS011;60396;47.550;18.828;2023-08-21T14:07:32;10.68;;;7.00;;
72406;SDS011;60396;47.550;18.828;2023-08-21T14:10:00;13.50;;;7.28;;
72406;SDS011;60396;47.550;18.828;2023-08-21T14:12:29;12.73;;;7.10;;
72406;SDS011;60396;47.550;18.828;2023-08-21T14:15:00;12.52;;;7.20;;
72406;SDS011;60396;47.550;18.828;2023-08-21T14:17:28;11.30;;;7.40;;
72406;SDS011;60396;47.550;18.828;2023-08-21T14:19:56;10.40;;;6.65;;
72406;SDS011;60396;47.550;18.828;2023-08-21T14:22:23;11.65;;;7.00;;
72406;SDS011;60396;47.550;18.828;2023-08-21T14:24:51;9.50;;;6.82;;
72406;SDS011;60396;47.550;18.828;2023-08-21T14:27:19;11.07;;;6.90;;
72406;SDS011;60396;47.550;18.828;2023-08-21T14:29:46;10.63;;;6.83;;
72406;SDS011;60396;47.550;18.828;2023-08-21T14:32:14;11.18;;;6.82;;
72406;SDS011;60396;47.550;18.828;2023-08-21T14:34:42;10.63;;;6.72;;
72406;SDS011;60396;47.550;18.828;2023-08-21T14:37:10;11.12;;;6.90;;
72406;SDS011;60396;47.550;18.828;2023-08-21T14:39:42;9.30;;;6.78;;
72406;SDS011;60396;47.550;18.828;2023-08-21T14:42:10;10.40;;;7.07;;